Time;durP1;ratioP1;P1;durP2;ratioP2;P2;SDS_P1;SDS_P2;PMS_P1;PMS_P2;Temp;Humidity;BMP_temperature;BMP_pressure;BME280_temperature;BME280_humidity;BME280_pressure;Samples;Min_cycle;Max_cycle;Signal;HPM_P1;HPM_P2
2023/06/09 00:00:59;;;;;;;6.85;5.43;;;;;;;;;;4996191;28;20711;-84
2023/06/09 00:03:25;;;;;;;5.82;5.32;;;;;;;;;;4994971;28;20273;-86
2023/06/09 00:05:51;;;;;;;6.90;5.50;;;;;;;;;;4974610;28;20227;-87
2023/06/09 00:08:17;;;;;;;6.63;5.20;;;;;;;;;;4991935;28;20213;-83
2023/06/09 00:10:42;;;;;;;5.45;4.95;;;;;;;;;;4995110;28;20226;-83
2023/06/09 00:13:09;;;;;;;5.72;5.05;;;;;;;;;;4977027;28;20222;-84
2023/06/09 00:15:38;;;;;;;5.65;5.20;;;;;;;;;;4996430;28;20229;-85
2023/06/09 00:18:04;;;;;;;5.38;4.88;;;;;;;;;;4983572;28;20222;-84
2023/06/09 00:20:33;;;;;;;6.53;4.40;;;;;;;;;;4981960;28;20220;-83
2023/06/09 00:23:01;;;;;;;6.22;4.95;;;;;;;;;;4979705;28;20234;-84
2023/06/09 00:25:27;;;;;;;5.30;4.80;;;;;;;;;;4979557;28;20288;-84
2023/06/09 00:27:55;;;;;;;5.68;5.07;;;;;;;;;;4986562;28;20310;-85
2023/06/09 00:30:24;;;;;;;6.32;4.85;;;;;;;;;;5003148;28;20225;-85
2023/06/09 00:32:50;;;;;;;5.35;4.80;;;;;;;;;;5001424;28;20228;-84
2023/06/09 00:35:16;;;;;;;5.30;4.80;;;;;;;;;;4996949;28;20226;-85
2023/06/09 00:37:41;;;;;;;5.43;4.72;;;;;;;;;;4967643;28;20372;-84
2023/06/09 00:40:09;;;;;;;6.90;5.00;;;;;;;;;;4993245;28;20219;-83
2023/06/09 00:42:35;;;;;;;6.10;4.93;;;;;;;;;;4973992;28;20733;-83
2023/06/09 00:45:00;;;;;;;5.90;4.97;;;;;;;;;;4968523;28;20291;-84
2023/06/09 00:47:26;;;;;;;5.47;4.97;;;;;;;;;;4981760;28;20272;-84
2023/06/09 00:49:54;;;;;;;5.35;4.85;;;;;;;;;;4970601;28;20316;-85
2023/06/09 00:52:20;;;;;;;5.55;5.05;;;;;;;;;;4967575;28;20231;-84
2023/06/09 00:54:45;;;;;;;6.50;5.05;;;;;;;;;;4976285;28;20236;-83
2023/06/09 00:57:11;;;;;;;5.95;5.22;;;;;;;;;;5016245;28;20289;-86
2023/06/09 00:59:41;;;;;;;5.40;4.57;;;;;;;;;;4984102;28;20360;-84
2023/06/09 01:02:07;;;;;;;4.80;4.32;;;;;;;;;;4978151;28;20256;-84
2023/06/09 01:04:34;;;;;;;5.15;4.63;;;;;;;;;;4999512;28;20234;-85
2023/06/09 01:07:20;;;;;;;5.30;4.80;;;;;;;;;;4993604;28;20257;-85
2023/06/09 01:09:58;;;;;;;4.80;4.40;;;;;;;;;;5001132;28;20226;-84
2023/06/09 01:12:29;;;;;;;5.00;4.50;;;;;;;;;;4987942;28;20237;-85
2023/06/09 01:15:03;;;;;;;4.93;4.53;;;;;;;;;;5002670;28;20233;-86
2023/06/09 01:17:32;;;;;;;6.82;4.80;;;;;;;;;;4986342;28;20248;-83
2023/06/09 01:20:05;;;;;;;4.80;4.40;;;;;;;;;;4990741;28;20260;-85
2023/06/09 01:22:45;;;;;;;4.85;4.45;;;;;;;;;;4986252;28;20378;-86
2023/06/09 01:25:31;;;;;;;5.88;4.75;;;;;;;;;;5014744;28;20232;-85
2023/06/09 01:27:57;;;;;;;4.78;4.30;;;;;;;;;;4976757;28;20225;-85
2023/06/09 01:30:29;;;;;;;6.47;4.60;;;;;;;;;;5002580;28;20280;-85
2023/06/09 01:33:01;;;;;;;4.88;4.40;;;;;;;;;;5001952;28;20213;-85
2023/06/09 01:35:28;;;;;;;4.55;4.15;;;;;;;;;;4973291;28;20248;-85
2023/06/09 01:37:54;;;;;;;4.28;3.88;;;;;;;;;;4981822;28;20226;-85
2023/06/09 01:40:20;;;;;;;4.15;3.70;;;;;;;;;;4966187;28;20219;-85
2023/06/09 01:42:47;;;;;;;4.53;4.03;;;;;;;;;;4975984;28;20226;-86
2023/06/09 01:45:13;;;;;;;5.15;4.20;;;;;;;;;;4980320;28;20367;-85
2023/06/09 01:47:38;;;;;;;4.60;4.20;;;;;;;;;;4985517;28;20238;-86
2023/06/09 01:50:08;;;;;;;4.07;3.67;;;;;;;;;;4999817;28;20222;-85
2023/06/09 01:52:39;;;;;;;5.05;3.60;;;;;;;;;;4990078;28;20222;-87
2023/06/09 01:55:11;;;;;;;3.67;3.38;;;;;;;;;;4982411;28;20221;-87
2023/06/09 01:57:48;;;;;;;4.28;3.47;;;;;;;;;;5001050;28;20225;-86
2023/06/09 02:00:14;;;;;;;4.03;3.33;;;;;;;;;;4983117;28;20225;-83
2023/06/09 02:02:40;;;;;;;3.47;3.17;;;;;;;;;;4965659;28;20599;-85
2023/06/09 02:05:06;;;;;;;3.38;3.08;;;;;;;;;;4968347;28;20223;-86
2023/06/09 02:07:36;;;;;;;3.97;3.30;;;;;;;;;;4967231;28;20284;-85
2023/06/09 02:10:05;;;;;;;3.70;3.40;;;;;;;;;;4976044;28;20220;-83
2023/06/09 02:12:33;;;;;;;3.58;3.28;;;;;;;;;;4995791;28;20257;-84
2023/06/09 02:15:03;;;;;;;3.25;2.95;;;;;;;;;;4975115;28;20225;-84
2023/06/09 02:17:34;;;;;;;3.38;3.08;;;;;;;;;;4955113;28;20245;-84
2023/06/09 02:20:03;;;;;;;3.50;3.10;;;;;;;;;;4987890;28;20218;-83
2023/06/09 02:22:31;;;;;;;3.58;3.10;;;;;;;;;;4986617;28;20216;-85
2023/06/09 02:24:58;;;;;;;3.72;3.42;;;;;;;;;;4985858;28;20651;-83
2023/06/09 02:27:23;;;;;;;4.07;2.72;;;;;;;;;;4980155;28;20303;-85
2023/06/09 02:29:49;;;;;;;2.85;2.65;;;;;;;;;;4959198;28;20221;-84
2023/06/09 02:32:20;;;;;;;3.55;2.72;;;;;;;;;;4996043;28;20218;-83
2023/06/09 02:34:45;;;;;;;4.45;3.47;;;;;;;;;;4996676;28;20225;-86
2023/06/09 02:37:12;;;;;;;3.65;2.80;;;;;;;;;;4982599;28;20721;-84
2023/06/09 02:39:37;;;;;;;3.30;3.00;;;;;;;;;;4997845;28;20212;-84
2023/06/09 02:42:03;;;;;;;4.13;3.17;;;;;;;;;;5007840;28;20222;-84
2023/06/09 02:44:31;;;;;;;4.07;3.20;;;;;;;;;;4987643;28;20241;-84
2023/06/09 02:46:58;;;;;;;3.15;2.85;;;;;;;;;;4973133;28;20218;-84
2023/06/09 02:49:27;;;;;;;2.90;2.70;;;;;;;;;;4980600;28;20240;-86
2023/06/09 02:51:52;;;;;;;3.70;2.90;;;;;;;;;;5006061;28;20557;-83
2023/06/09 02:54:18;;;;;;;3.25;3.00;;;;;;;;;;4969506;28;20233;-84
2023/06/09 02:56:47;;;;;;;4.05;3.35;;;;;;;;;;4983877;28;20252;-81
2023/06/09 02:59:12;;;;;;;3.75;3.13;;;;;;;;;;4975551;28;21011;-83
2023/06/09 03:01:42;;;;;;;3.03;2.72;;;;;;;;;;4983809;28;20218;-82
2023/06/09 03:04:11;;;;;;;3.65;3.00;;;;;;;;;;4966122;28;20206;-83
2023/06/09 03:06:43;;;;;;;3.03;2.75;;;;;;;;;;4986006;28;20245;-84
2023/06/09 03:09:12;;;;;;;3.33;2.97;;;;;;;;;;4968984;28;20653;-84
2023/06/09 03:11:45;;;;;;;3.05;2.75;;;;;;;;;;4984679;28;20301;-85
2023/06/09 03:14:12;;;;;;;3.30;3.05;;;;;;;;;;4983543;28;20218;-84
2023/06/09 03:16:38;;;;;;;3.22;2.90;;;;;;;;;;4985796;28;20293;-86
2023/06/09 03:19:05;;;;;;;3.65;2.90;;;;;;;;;;5000925;28;20271;-85
2023/06/09 03:21:36;;;;;;;4.22;3.30;;;;;;;;;;4987148;28;20222;-85
2023/06/09 03:24:07;;;;;;;3.95;3.10;;;;;;;;;;4985448;28;20205;-84
2023/06/09 03:26:34;;;;;;;4.38;3.13;;;;;;;;;;4978441;28;20265;-83
2023/06/09 03:29:00;;;;;;;3.42;2.95;;;;;;;;;;4999618;28;20604;-85
2023/06/09 03:31:30;;;;;;;3.25;2.95;;;;;;;;;;4986289;28;20741;-82
2023/06/09 03:33:56;;;;;;;3.45;3.15;;;;;;;;;;4978826;28;20221;-85
2023/06/09 03:36:23;;;;;;;3.80;3.25;;;;;;;;;;4965417;28;20234;-84
2023/06/09 03:38:50;;;;;;;3.65;3.35;;;;;;;;;;5000629;28;20861;-83
2023/06/09 03:41:18;;;;;;;5.03;3.70;;;;;;;;;;5020904;28;20557;-86
2023/06/09 03:43:51;;;;;;;3.92;3.53;;;;;;;;;;4958730;28;20695;-85
2023/06/09 03:46:19;;;;;;;3.75;3.35;;;;;;;;;;4973252;28;20233;-86
2023/06/09 03:48:48;;;;;;;3.53;3.22;;;;;;;;;;4967459;28;20225;-82
2023/06/09 03:51:14;;;;;;;3.58;3.28;;;;;;;;;;4995741;28;20280;-84
2023/06/09 03:53:40;;;;;;;3.95;3.30;;;;;;;;;;4979677;28;20285;-86
2023/06/09 03:56:11;;;;;;;5.53;3.78;;;;;;;;;;4982524;28;20274;-85
2023/06/09 03:58:37;;;;;;;3.88;3.40;;;;;;;;;;4988769;28;20249;-85
2023/06/09 04:01:10;;;;;;;4.63;3.70;;;;;;;;;;4966636;28;20241;-84
2023/06/09 04:03:37;;;;;;;3.85;3.47;;;;;;;;;;4969718;28;20218;-84
2023/06/09 04:06:05;;;;;;;3.88;3.58;;;;;;;;;;4965112;28;20236;-82
2023/06/09 04:08:31;;;;;;;3.85;3.33;;;;;;;;;;4977919;28;20239;-83
2023/06/09 04:11:02;;;;;;;3.92;3.45;;;;;;;;;;4999317;28;20222;-83
2023/06/09 04:13:28;;;;;;;5.43;3.50;;;;;;;;;;4984030;28;20222;-84
2023/06/09 04:15:56;;;;;;;4.25;3.70;;;;;;;;;;4973352;28;20213;-84
2023/06/09 04:18:23;;;;;;;4.03;3.70;;;;;;;;;;4971948;28;21296;-84
2023/06/09 04:20:48;;;;;;;10.18;3.30;;;;;;;;;;5006396;28;20225;-84
2023/06/09 04:23:14;;;;;;;4.28;3.90;;;;;;;;;;4958962;28;20218;-84
2023/06/09 04:25:45;;;;;;;4.43;3.72;;;;;;;;;;4974312;28;20636;-84
2023/06/09 04:28:17;;;;;;;4.43;3.83;;;;;;;;;;4984224;28;20296;-84
2023/06/09 04:30:45;;;;;;;4.13;3.47;;;;;;;;;;4971089;28;20214;-84
2023/06/09 04:33:14;;;;;;;4.18;3.55;;;;;;;;;;4986766;28;20216;-83
2023/06/09 04:35:43;;;;;;;4.97;3.60;;;;;;;;;;4993483;28;20237;-84
2023/06/09 04:38:13;;;;;;;5.75;3.60;;;;;;;;;;4956869;28;20248;-83
2023/06/09 04:40:39;;;;;;;5.20;4.05;;;;;;;;;;4971959;28;20226;-83
2023/06/09 04:43:08;;;;;;;5.25;4.20;;;;;;;;;;4974204;28;20257;-84
2023/06/09 04:45:36;;;;;;;5.22;3.90;;;;;;;;;;4948502;28;20237;-82
2023/06/09 04:48:21;;;;;;;4.03;3.63;;;;;;;;;;4977712;28;20221;-83
2023/06/09 04:50:47;;;;;;;4.38;3.97;;;;;;;;;;4979253;28;20585;-83
2023/06/09 04:53:15;;;;;;;4.50;4.10;;;;;;;;;;4974029;28;20218;-85
2023/06/09 04:55:48;;;;;;;4.03;3.72;;;;;;;;;;4977968;28;20213;-83
2023/06/09 04:58:21;;;;;;;5.88;3.88;;;;;;;;;;4980593;28;20218;-84
2023/06/09 05:00:47;;;;;;;5.22;4.10;;;;;;;;;;4987431;28;20213;-84
2023/06/09 05:03:17;;;;;;;4.65;4.05;;;;;;;;;;4994476;28;20220;-83
2023/06/09 05:05:45;;;;;;;5.50;4.15;;;;;;;;;;4993591;28;20245;-84
2023/06/09 05:08:10;;;;;;;4.85;4.35;;;;;;;;;;4974366;28;20205;-83
2023/06/09 05:10:36;;;;;;;4.68;4.20;;;;;;;;;;4971327;28;20214;-83
2023/06/09 05:13:05;;;;;;;5.60;4.45;;;;;;;;;;4978495;28;20308;-85
2023/06/09 05:15:30;;;;;;;5.55;4.30;;;;;;;;;;4989650;28;20257;-84
2023/06/09 05:17:57;;;;;;;5.25;4.30;;;;;;;;;;4952177;28;20584;-83
2023/06/09 05:20:23;;;;;;;6.40;4.30;;;;;;;;;;4943512;28;20228;-86
2023/06/09 05:22:50;;;;;;;4.50;3.92;;;;;;;;;;4962388;28;20217;-85
2023/06/09 05:25:16;;;;;;;7.35;4.75;;;;;;;;;;4960735;28;20391;-86
2023/06/09 05:27:41;;;;;;;4.72;4.32;;;;;;;;;;4966843;28;20217;-85
2023/06/09 05:30:10;;;;;;;6.47;5.15;;;;;;;;;;4994786;28;20248;-87
2023/06/09 05:32:38;;;;;;;5.50;4.40;;;;;;;;;;4988232;28;20652;-86
2023/06/09 05:35:04;;;;;;;6.38;5.10;;;;;;;;;;5001139;28;20222;-86
2023/06/09 05:37:34;;;;;;;5.72;4.80;;;;;;;;;;4963375;28;20233;-84
2023/06/09 05:39:59;;;;;;;4.90;4.38;;;;;;;;;;4982225;28;20221;-87
2023/06/09 05:42:28;;;;;;;7.05;4.65;;;;;;;;;;4968989;28;20216;-85
2023/06/09 05:44:53;;;;;;;6.57;4.80;;;;;;;;;;4959944;28;20682;-84
2023/06/09 05:47:19;;;;;;;7.43;5.13;;;;;;;;;;4983471;28;20232;-86
2023/06/09 05:49:49;;;;;;;5.32;4.53;;;;;;;;;;4995489;28;20244;-87
2023/06/09 05:52:17;;;;;;;6.72;4.97;;;;;;;;;;4975056;28;20206;-85
2023/06/09 05:54:47;;;;;;;7.40;4.65;;;;;;;;;;5008468;28;20229;-87
2023/06/09 05:57:20;;;;;;;5.68;4.32;;;;;;;;;;5009424;28;20228;-85
2023/06/09 05:59:48;;;;;;;6.05;4.50;;;;;;;;;;4957802;28;20221;-86
2023/06/09 06:02:16;;;;;;;5.72;4.75;;;;;;;;;;5010879;28;20223;-84
2023/06/09 06:04:44;;;;;;;4.97;4.30;;;;;;;;;;4974277;28;20214;-84
2023/06/09 06:07:10;;;;;;;5.38;4.60;;;;;;;;;;4976087;28;20275;-86
2023/06/09 06:09:35;;;;;;;5.50;5.00;;;;;;;;;;4959482;28;20217;-82
2023/06/09 06:12:01;;;;;;;5.18;4.40;;;;;;;;;;4958155;28;20220;-88
2023/06/09 06:14:26;;;;;;;5.60;4.60;;;;;;;;;;4961996;28;20252;-86
2023/06/09 06:16:52;;;;;;;9.52;4.22;;;;;;;;;;5003408;28;20220;-86
2023/06/09 06:19:22;;;;;;;6.15;4.10;;;;;;;;;;4976206;28;20210;-84
2023/06/09 06:21:47;;;;;;;6.03;3.90;;;;;;;;;;4979834;28;20217;-85
2023/06/09 06:24:18;;;;;;;4.43;3.80;;;;;;;;;;4955353;28;20217;-87
2023/06/09 06:26:46;;;;;;;7.05;4.25;;;;;;;;;;4961042;28;20217;-86
2023/06/09 06:29:11;;;;;;;4.25;3.85;;;;;;;;;;4966806;28;20212;-84
2023/06/09 06:31:42;;;;;;;4.38;3.97;;;;;;;;;;4953960;28;20226;-85
2023/06/09 06:34:09;;;;;;;5.22;4.07;;;;;;;;;;4989280;28;20225;-85
2023/06/09 06:36:35;;;;;;;6.32;3.70;;;;;;;;;;4987149;28;20225;-85
2023/06/09 06:39:00;;;;;;;4.13;3.67;;;;;;;;;;4975267;28;20214;-88
2023/06/09 06:41:26;;;;;;;5.13;3.45;;;;;;;;;;4973328;28;20225;-86
2023/06/09 06:43:52;;;;;;;4.43;3.55;;;;;;;;;;4970921;28;20220;-86
2023/06/09 06:46:17;;;;;;;5.18;3.60;;;;;;;;;;4967372;28;20225;-86
2023/06/09 06:48:45;;;;;;;3.33;3.00;;;;;;;;;;4979091;28;20217;-87
2023/06/09 06:51:10;;;;;;;4.57;3.05;;;;;;;;;;4975888;28;20224;-86
2023/06/09 06:53:38;;;;;;;3.67;2.67;;;;;;;;;;5009425;28;20232;-87
2023/06/09 06:56:07;;;;;;;3.35;3.05;;;;;;;;;;4984133;28;20205;-87
2023/06/09 06:58:34;;;;;;;3.13;2.65;;;;;;;;;;5005657;28;20213;-86
2023/06/09 07:01:00;;;;;;;4.18;2.92;;;;;;;;;;4985921;28;20220;-85
2023/06/09 07:03:28;;;;;;;4.13;2.85;;;;;;;;;;5010317;28;20871;-85
2023/06/09 07:05:56;;;;;;;3.30;2.90;;;;;;;;;;4968973;28;20252;-86
2023/06/09 07:08:26;;;;;;;4.32;2.58;;;;;;;;;;4957650;28;20218;-84
2023/06/09 07:10:54;;;;;;;3.45;2.80;;;;;;;;;;4965100;28;20228;-86
2023/06/09 07:13:24;;;;;;;3.83;2.90;;;;;;;;;;4977534;28;20225;-88
2023/06/09 07:15:52;;;;;;;4.93;2.67;;;;;;;;;;4956437;28;20257;-84
2023/06/09 07:18:18;;;;;;;3.13;2.83;;;;;;;;;;5008716;28;20232;-84
2023/06/09 07:20:48;;;;;;;3.03;2.60;;;;;;;;;;4990471;28;20224;-84
2023/06/09 07:23:13;;;;;;;3.05;2.75;;;;;;;;;;4967639;28;20233;-85
2023/06/09 07:25:39;;;;;;;2.67;2.47;;;;;;;;;;4959481;28;20233;-85
2023/06/09 07:28:07;;;;;;;3.95;2.80;;;;;;;;;;4978532;28;20232;-85
2023/06/09 07:30:35;;;;;;;3.50;2.50;;;;;;;;;;4984050;28;20236;-85
2023/06/09 07:33:00;;;;;;;3.80;2.80;;;;;;;;;;4967652;28;20210;-84
2023/06/09 07:35:26;;;;;;;3.95;2.45;;;;;;;;;;4989383;28;20236;-83
2023/06/09 07:37:54;;;;;;;3.03;2.72;;;;;;;;;;4996526;28;20218;-84
2023/06/09 07:40:24;;;;;;;3.90;2.65;;;;;;;;;;4978197;28;20235;-85
2023/06/09 07:42:52;;;;;;;3.28;2.78;;;;;;;;;;4981281;28;20597;-84
2023/06/09 07:45:17;;;;;;;3.55;2.42;;;;;;;;;;4974208;28;20213;-86
2023/06/09 07:47:43;;;;;;;4.20;2.63;;;;;;;;;;4978579;28;20235;-87
2023/06/09 07:50:11;;;;;;;3.47;2.75;;;;;;;;;;4959391;28;20222;-86
2023/06/09 07:52:39;;;;;;;3.05;2.75;;;;;;;;;;4979670;28;20606;-86
2023/06/09 07:55:08;;;;;;;3.25;2.78;;;;;;;;;;4981790;28;20222;-85
2023/06/09 07:57:33;;;;;;;3.30;3.00;;;;;;;;;;4974787;28;20236;-86
2023/06/09 07:59:59;;;;;;;2.95;2.60;;;;;;;;;;5006097;28;20221;-85
2023/06/09 08:02:25;;;;;;;7.55;2.70;;;;;;;;;;4985190;28;20232;-86
2023/06/09 08:04:52;;;;;;;2.85;2.45;;;;;;;;;;4967772;28;20229;-87
2023/06/09 08:07:18;;;;;;;2.72;2.53;;;;;;;;;;4954642;28;20229;-86
2023/06/09 08:09:43;;;;;;;3.05;2.65;;;;;;;;;;4973533;28;20268;-86
2023/06/09 08:12:11;;;;;;;3.42;2.80;;;;;;;;;;4986602;28;20296;-86
2023/06/09 08:14:37;;;;;;;3.33;3.00;;;;;;;;;;5004888;28;20222;-87
2023/06/09 08:17:05;;;;;;;2.80;2.53;;;;;;;;;;4958497;28;20273;-88
2023/06/09 08:19:33;;;;;;;3.40;2.60;;;;;;;;;;4999126;28;20221;-86
2023/06/09 08:22:01;;;;;;;4.97;2.80;;;;;;;;;;4957302;28;20226;-86
2023/06/09 08:24:26;;;;;;;3.65;3.00;;;;;;;;;;4974238;28;20222;-85
2023/06/09 08:26:52;;;;;;;3.28;2.97;;;;;;;;;;4977587;28;20256;-84
2023/06/09 08:29:18;;;;;;;3.40;2.90;;;;;;;;;;5004211;28;20836;-84
2023/06/09 08:31:46;;;;;;;3.53;2.88;;;;;;;;;;4970104;28;20705;-87
2023/06/09 08:34:14;;;;;;;2.92;2.63;;;;;;;;;;4967836;28;20281;-85
2023/06/09 08:36:41;;;;;;;3.47;2.88;;;;;;;;;;4978464;28;20350;-85
2023/06/09 08:39:06;;;;;;;2.97;2.75;;;;;;;;;;4977266;28;20232;-86
2023/06/09 08:41:37;;;;;;;3.72;2.80;;;;;;;;;;4960369;28;20222;-85
2023/06/09 08:44:06;;;;;;;3.88;3.15;;;;;;;;;;4960602;28;20283;-84
2023/06/09 08:46:33;;;;;;;4.60;3.08;;;;;;;;;;4972299;28;20214;-84
2023/06/09 08:49:00;;;;;;;3.83;2.75;;;;;;;;;;4981443;28;20441;-84
2023/06/09 08:51:26;;;;;;;3.17;2.88;;;;;;;;;;4975564;28;20213;-86
2023/06/09 08:53:52;;;;;;;2.80;2.60;;;;;;;;;;4958154;28;20222;-85
2023/06/09 08:56:23;;;;;;;4.40;3.20;;;;;;;;;;5002586;28;20241;-86
2023/06/09 08:58:50;;;;;;;3.20;2.80;;;;;;;;;;4984709;28;20228;-85
2023/06/09 09:01:20;;;;;;;3.13;2.83;;;;;;;;;;4976946;28;20240;-85
2023/06/09 09:03:47;;;;;;;3.78;3.03;;;;;;;;;;4982050;28;20299;-85
2023/06/09 09:06:14;;;;;;;3.17;2.88;;;;;;;;;;4988954;28;20218;-86
2023/06/09 09:08:43;;;;;;;3.08;2.78;;;;;;;;;;4975496;28;20229;-86
2023/06/09 09:11:09;;;;;;;3.42;2.90;;;;;;;;;;4974293;28;20221;-87
2023/06/09 09:13:35;;;;;;;4.15;2.90;;;;;;;;;;4977966;28;20269;-85
2023/06/09 09:16:01;;;;;;;4.13;2.78;;;;;;;;;;4994736;28;20216;-86
2023/06/09 09:18:31;;;;;;;3.47;2.70;;;;;;;;;;4981251;28;20225;-86
2023/06/09 09:21:00;;;;;;;2.85;2.65;;;;;;;;;;4961429;28;20707;-86
2023/06/09 09:23:32;;;;;;;3.50;3.20;;;;;;;;;;4971595;28;20225;-86
2023/06/09 09:26:02;;;;;;;3.40;2.78;;;;;;;;;;4967142;28;20228;-86
2023/06/09 09:28:40;;;;;;;2.80;2.60;;;;;;;;;;4960804;28;20221;-86
2023/06/09 09:31:06;;;;;;;2.72;2.53;;;;;;;;;;5001080;28;20614;-86
2023/06/09 09:33:35;;;;;;;3.33;2.65;;;;;;;;;;4979543;28;20220;-86
2023/06/09 09:36:03;;;;;;;4.85;3.17;;;;;;;;;;4964654;28;20222;-86
2023/06/09 09:38:31;;;;;;;3.10;2.65;;;;;;;;;;4978184;28;20221;-87
2023/06/09 09:40:58;;;;;;;3.45;3.00;;;;;;;;;;4969712;28;20229;-87
2023/06/09 09:43:29;;;;;;;3.00;2.70;;;;;;;;;;4994069;28;20221;-86
2023/06/09 09:46:07;;;;;;;4.53;2.72;;;;;;;;;;4970760;28;20225;-84
2023/06/09 09:48:37;;;;;;;4.53;2.80;;;;;;;;;;4979465;28;20302;-83
2023/06/09 09:51:03;;;;;;;3.08;2.65;;;;;;;;;;4955411;28;20226;-89
2023/06/09 09:53:29;;;;;;;5.25;2.70;;;;;;;;;;4996945;28;20225;-86
2023/06/09 09:55:56;;;;;;;2.83;2.63;;;;;;;;;;4998666;28;20217;-87
2023/06/09 09:58:35;;;;;;;3.28;2.63;;;;;;;;;;4974764;28;20221;-85
2023/06/09 10:01:05;;;;;;;3.17;2.72;;;;;;;;;;4968319;28;20220;-86
2023/06/09 10:03:44;;;;;;;3.40;3.10;;;;;;;;;;4988976;28;20228;-86
2023/06/09 10:06:11;;;;;;;5.35;2.97;;;;;;;;;;4977830;28;21024;-86
2023/06/09 10:08:36;;;;;;;5.05;3.17;;;;;;;;;;4961261;28;20579;-86
2023/06/09 10:11:05;;;;;;;3.63;3.00;;;;;;;;;;4981465;28;20361;-82
2023/06/09 10:13:30;;;;;;;5.03;3.30;;;;;;;;;;4978149;28;20222;-84
2023/06/09 10:15:56;;;;;;;3.60;3.30;;;;;;;;;;4967483;28;20220;-84
2023/06/09 10:18:24;;;;;;;5.07;3.30;;;;;;;;;;4972367;28;20218;-86
2023/06/09 10:20:53;;;;;;;5.25;3.25;;;;;;;;;;5014566;28;20298;-83
2023/06/09 10:23:19;;;;;;;5.00;3.10;;;;;;;;;;4947444;28;20333;-83
2023/06/09 10:25:53;;;;;;;4.22;3.08;;;;;;;;;;4977246;28;20217;-84
2023/06/09 10:28:21;;;;;;;3.40;3.10;;;;;;;;;;4945809;28;20257;-84
2023/06/09 10:30:51;;;;;;;4.63;3.15;;;;;;;;;;4978269;28;20286;-83
2023/06/09 10:33:26;;;;;;;3.35;3.08;;;;;;;;;;4981180;28;20218;-82
2023/06/09 10:36:00;;;;;;;4.10;3.30;;;;;;;;;;4998717;28;20627;-84
2023/06/09 10:38:47;;;;;;;3.88;3.20;;;;;;;;;;4990870;28;20218;-87
2023/06/09 10:41:30;;;;;;;3.47;3.17;;;;;;;;;;4990819;28;20224;-86
2023/06/09 10:44:10;;;;;;;3.13;2.78;;;;;;;;;;5005095;28;20225;-85
2023/06/09 10:46:42;;;;;;;3.50;3.05;;;;;;;;;;5015112;28;20229;-84
2023/06/09 10:49:25;;;;;;;3.17;2.88;;;;;;;;;;4996664;28;20226;-85
2023/06/09 10:51:51;;;;;;;3.20;2.90;;;;;;;;;;5010504;28;20240;-85
2023/06/09 10:54:21;;;;;;;5.53;3.42;;;;;;;;;;4990826;28;20236;-86
2023/06/09 10:56:57;;;;;;;3.38;3.08;;;;;;;;;;4979419;28;20221;-87
2023/06/09 10:59:25;;;;;;;3.90;3.50;;;;;;;;;;4976071;28;20234;-86
2023/06/09 11:02:00;;;;;;;4.00;3.38;;;;;;;;;;4982402;28;20210;-87
2023/06/09 11:04:39;;;;;;;3.30;3.00;;;;;;;;;;5007701;28;20225;-85
2023/06/09 11:07:14;;;;;;;3.65;3.35;;;;;;;;;;4999363;28;20225;-83
2023/06/09 11:09:43;;;;;;;3.92;3.20;;;;;;;;;;5016737;28;20295;-86
2023/06/09 11:12:20;;;;;;;3.08;2.88;;;;;;;;;;4995321;28;20217;-87
2023/06/09 11:14:46;;;;;;;3.50;3.20;;;;;;;;;;4962148;28;20245;-87
2023/06/09 11:17:19;;;;;;;3.83;3.40;;;;;;;;;;5005068;28;20225;-87
2023/06/09 11:19:50;;;;;;;3.80;3.15;;;;;;;;;;5002585;28;20216;-88
2023/06/09 11:22:15;;;;;;;3.50;3.20;;;;;;;;;;5010262;28;20285;-83
2023/06/09 11:24:51;;;;;;;3.70;3.40;;;;;;;;;;5007405;28;20217;-85
2023/06/09 11:27:20;;;;;;;3.40;3.10;;;;;;;;;;4984646;28;20284;-87
2023/06/09 11:30:04;;;;;;;4.03;3.35;;;;;;;;;;5000902;28;20214;-85
2023/06/09 11:32:48;;;;;;;3.80;3.35;;;;;;;;;;4990815;28;20280;-87
2023/06/09 11:35:29;;;;;;;3.50;3.20;;;;;;;;;;5002696;28;20230;-87
2023/06/09 11:38:07;;;;;;;3.20;3.00;;;;;;;;;;4989313;28;20221;-86
2023/06/09 11:40:44;;;;;;;3.15;2.95;;;;;;;;;;4991447;28;20217;-87
2023/06/09 11:43:10;;;;;;;3.40;3.20;;;;;;;;;;4983458;28;20225;-86
2023/06/09 11:45:40;;;;;;;3.50;3.20;;;;;;;;;;4976522;28;20218;-86
2023/06/09 11:48:08;;;;;;;3.42;3.13;;;;;;;;;;4967507;28;20221;-87
2023/06/09 11:50:42;;;;;;;3.67;3.13;;;;;;;;;;4984635;28;20225;-88
2023/06/09 11:53:15;;;;;;;4.43;3.55;;;;;;;;;;4992459;28;20224;-86
2023/06/09 11:55:43;;;;;;;3.55;3.25;;;;;;;;;;5003338;28;20245;-86
2023/06/09 11:58:10;;;;;;;3.50;3.20;;;;;;;;;;4983925;28;20226;-85
2023/06/09 12:00:42;;;;;;;3.58;3.30;;;;;;;;;;4979130;28;20225;-83
2023/06/09 12:03:10;;;;;;;4.47;3.40;;;;;;;;;;4987297;28;20268;-83
2023/06/09 12:05:36;;;;;;;3.47;3.17;;;;;;;;;;4992120;28;20232;-85
2023/06/09 12:08:16;;;;;;;4.45;3.42;;;;;;;;;;4991739;28;20232;-86
2023/06/09 12:10:41;;;;;;;3.47;3.13;;;;;;;;;;4975387;28;20218;-83
2023/06/09 12:13:07;;;;;;;4.13;2.88;;;;;;;;;;4977461;28;20721;-83
2023/06/09 12:15:34;;;;;;;3.83;3.10;;;;;;;;;;4996189;28;20294;-83
2023/06/09 12:18:03;;;;;;;4.28;3.60;;;;;;;;;;4999583;28;20228;-84
2023/06/09 12:20:33;;;;;;;3.25;3.05;;;;;;;;;;4980388;28;20659;-85
2023/06/09 12:23:02;;;;;;;3.45;3.15;;;;;;;;;;4997798;28;20230;-86
2023/06/09 12:25:32;;;;;;;3.60;3.22;;;;;;;;;;5021935;28;20217;-82
2023/06/09 12:28:13;;;;;;;3.38;3.08;;;;;;;;;;4983885;28;20229;-86
2023/06/09 12:30:53;;;;;;;3.33;3.10;;;;;;;;;;5000213;28;20251;-86
2023/06/09 12:33:25;;;;;;;4.28;3.17;;;;;;;;;;4992542;28;20223;-85
2023/06/09 12:35:55;;;;;;;3.55;3.25;;;;;;;;;;5014435;28;21017;-83
2023/06/09 12:38:26;;;;;;;3.75;3.30;;;;;;;;;;4983562;28;20295;-85
2023/06/09 12:41:09;;;;;;;4.13;2.72;;;;;;;;;;5001121;28;20225;-83
2023/06/09 12:43:49;;;;;;;3.42;3.10;;;;;;;;;;4968730;28;20233;-82
2023/06/09 12:46:20;;;;;;;3.88;3.08;;;;;;;;;;5005288;28;20560;-84
2023/06/09 12:48:54;;;;;;;3.40;3.10;;;;;;;;;;5011801;28;20731;-84
2023/06/09 12:51:20;;;;;;;3.33;3.03;;;;;;;;;;4999747;28;20229;-84
2023/06/09 12:53:45;;;;;;;3.40;3.05;;;;;;;;;;4983055;28;20216;-82
2023/06/09 12:56:12;;;;;;;3.40;3.20;;;;;;;;;;4977813;28;20292;-83
2023/06/09 12:58:39;;;;;;;3.28;2.97;;;;;;;;;;4974699;28;20232;-82
2023/06/09 13:01:07;;;;;;;3.28;2.97;;;;;;;;;;4996264;28;20232;-84
2023/06/09 13:03:37;;;;;;;4.90;3.33;;;;;;;;;;4957026;28;20300;-82
2023/06/09 13:06:05;;;;;;;3.50;3.20;;;;;;;;;;4994776;28;20230;-83
2023/06/09 13:08:31;;;;;;;3.97;2.92;;;;;;;;;;4981520;28;20221;-83
2023/06/09 13:10:58;;;;;;;3.58;3.20;;;;;;;;;;4995869;28;20220;-84
2023/06/09 13:13:24;;;;;;;3.72;3.42;;;;;;;;;;4980173;28;20232;-83
2023/06/09 13:15:49;;;;;;;3.97;3.22;;;;;;;;;;5001474;28;20236;-83
2023/06/09 13:18:16;;;;;;;2.67;2.50;;;;;;;;;;4972826;28;20620;-81
2023/06/09 13:20:44;;;;;;;4.88;2.75;;;;;;;;;;4990443;28;20233;-82
2023/06/09 13:23:09;;;;;;;3.90;3.08;;;;;;;;;;4982019;28;20220;-80
2023/06/09 13:25:40;;;;;;;3.30;3.00;;;;;;;;;;4998685;28;20230;-81
2023/06/09 13:28:09;;;;;;;2.85;2.58;;;;;;;;;;4974944;28;20210;-82
2023/06/09 13:30:37;;;;;;;2.90;2.70;;;;;;;;;;4995852;28;20225;-82
2023/06/09 13:33:03;;;;;;;3.70;2.75;;;;;;;;;;4971158;28;20206;-82
2023/06/09 13:35:30;;;;;;;3.75;3.03;;;;;;;;;;4993793;28;20220;-82
2023/06/09 13:37:57;;;;;;;4.55;2.70;;;;;;;;;;4993433;28;20240;-84
2023/06/09 13:40:23;;;;;;;2.55;2.35;;;;;;;;;;4994944;28;20229;-81
2023/06/09 13:42:54;;;;;;;6.05;2.80;;;;;;;;;;4976596;28;20257;-83
2023/06/09 13:45:22;;;;;;;4.00;2.70;;;;;;;;;;4978395;28;20217;-84
2023/06/09 13:47:55;;;;;;;3.58;2.80;;;;;;;;;;4987792;28;20261;-83
2023/06/09 13:50:21;;;;;;;3.10;2.80;;;;;;;;;;4977058;28;20293;-82
2023/06/09 13:52:47;;;;;;;2.90;2.70;;;;;;;;;;4950657;28;20213;-84
2023/06/09 13:55:15;;;;;;;2.88;2.67;;;;;;;;;;5012224;28;20239;-84
2023/06/09 13:57:42;;;;;;;2.88;2.67;;;;;;;;;;5022237;28;20228;-84
2023/06/09 14:00:14;;;;;;;3.30;3.00;;;;;;;;;;4981355;28;20671;-86
2023/06/09 14:02:42;;;;;;;3.95;2.72;;;;;;;;;;5004692;28;20244;-84
2023/06/09 14:05:09;;;;;;;2.90;2.70;;;;;;;;;;4974304;28;20276;-84
2023/06/09 14:07:35;;;;;;;2.90;2.63;;;;;;;;;;4997883;28;20297;-86
2023/06/09 14:10:02;;;;;;;2.75;2.55;;;;;;;;;;4966629;28;20297;-85
2023/06/09 14:12:33;;;;;;;3.42;2.78;;;;;;;;;;4977215;28;20227;-84
2023/06/09 14:14:59;;;;;;;2.55;2.35;;;;;;;;;;4982182;28;20225;-85
2023/06/09 14:17:27;;;;;;;2.85;2.65;;;;;;;;;;4978403;28;20232;-84
2023/06/09 14:19:56;;;;;;;3.95;2.80;;;;;;;;;;4986814;28;20651;-84
2023/06/09 14:22:22;;;;;;;3.63;2.63;;;;;;;;;;4976032;28;20244;-85
2023/06/09 14:24:50;;;;;;;2.92;2.53;;;;;;;;;;5007372;28;20228;-83
2023/06/09 14:27:16;;;;;;;3.65;2.60;;;;;;;;;;4985901;28;20229;-84
2023/06/09 14:29:41;;;;;;;2.72;2.22;;;;;;;;;;4985908;28;20331;-83
2023/06/09 14:32:07;;;;;;;2.92;2.72;;;;;;;;;;4954997;28;20224;-84
2023/06/09 14:34:35;;;;;;;3.38;3.08;;;;;;;;;;4993020;28;20242;-85
2023/06/09 14:37:01;;;;;;;2.72;2.53;;;;;;;;;;4977050;28;20235;-85
2023/06/09 14:39:26;;;;;;;2.92;2.72;;;;;;;;;;4988887;28;20230;-85
2023/06/09 14:41:57;;;;;;;2.72;2.53;;;;;;;;;;4998314;28;20233;-85
2023/06/09 14:44:22;;;;;;;3.17;2.63;;;;;;;;;;4981846;28;20711;-82
2023/06/09 14:46:51;;;;;;;2.85;2.65;;;;;;;;;;4980693;28;20221;-82
2023/06/09 14:49:19;;;;;;;3.45;2.65;;;;;;;;;;4994663;28;20276;-84
2023/06/09 14:51:49;;;;;;;2.83;2.63;;;;;;;;;;5004362;28;20300;-83